sensor_id;sensor_type;location;lat;lon;timestamp;P1;durP1;ratioP1;P2;durP2;ratioP2
48578;SDS011;34357;51.948;6.132;2023-04-25T00:02:21;12.07;;;4.03;;
48578;SDS011;34357;51.948;6.132;2023-04-25T00:04:47;11.57;;;3.88;;
48578;SDS011;34357;51.948;6.132;2023-04-25T00:07:17;14.15;;;4.30;;
48578;SDS011;34357;51.948;6.132;2023-04-25T00:09:42;18.73;;;4.32;;
48578;SDS011;34357;51.948;6.132;2023-04-25T00:12:10;15.52;;;4.63;;
48578;SDS011;34357;51.948;6.132;2023-04-25T00:14:36;18.73;;;4.88;;
48578;SDS011;34357;51.948;6.132;2023-04-25T00:17:01;17.25;;;5.40;;
48578;SDS011;34357;51.948;6.132;2023-04-25T00:19:28;16.48;;;4.88;;
48578;SDS011;34357;51.948;6.132;2023-04-25T00:21:56;18.50;;;5.22;;
48578;SDS011;34357;51.948;6.132;2023-04-25T00:24:22;17.02;;;5.35;;
48578;SDS011;34357;51.948;6.132;2023-04-25T00:26:48;19.63;;;5.15;;
48578;SDS011;34357;51.948;6.132;2023-04-25T00:29:14;18.40;;;4.78;;
48578;SDS011;34357;51.948;6.132;2023-04-25T00:31:40;18.08;;;4.72;;
48578;SDS011;34357;51.948;6.132;2023-04-25T00:34:06;19.80;;;5.10;;
48578;SDS011;34357;51.948;6.132;2023-04-25T00:36:34;19.35;;;4.90;;
48578;SDS011;34357;51.948;6.132;2023-04-25T00:39:00;19.15;;;5.13;;
48578;SDS011;34357;51.948;6.132;2023-04-25T00:41:25;20.00;;;5.20;;
48578;SDS011;34357;51.948;6.132;2023-04-25T00:43:52;19.45;;;5.18;;
48578;SDS011;34357;51.948;6.132;2023-04-25T00:46:19;17.90;;;5.68;;
48578;SDS011;34357;51.948;6.132;2023-04-25T00:48:45;17.27;;;4.55;;
48578;SDS011;34357;51.948;6.132;2023-04-25T00:51:13;20.30;;;6.70;;
48578;SDS011;34357;51.948;6.132;2023-04-25T00:53:41;20.50;;;5.55;;
48578;SDS011;34357;51.948;6.132;2023-04-25T00:56:07;23.48;;;5.35;;
48578;SDS011;34357;51.948;6.132;2023-04-25T00:58:33;26.17;;;5.72;;
48578;SDS011;34357;51.948;6.132;2023-04-25T01:00:59;23.15;;;5.38;;
48578;SDS011;34357;51.948;6.132;2023-04-25T01:03:26;18.35;;;5.53;;
48578;SDS011;34357;51.948;6.132;2023-04-25T01:05:53;29.60;;;6.72;;
48578;SDS011;34357;51.948;6.132;2023-04-25T01:08:19;26.10;;;6.32;;
48578;SDS011;34357;51.948;6.132;2023-04-25T01:10:50;27.98;;;6.22;;
48578;SDS011;34357;51.948;6.132;2023-04-25T01:13:16;25.77;;;5.60;;
48578;SDS011;34357;51.948;6.132;2023-04-25T01:15:42;25.83;;;6.22;;
48578;SDS011;34357;51.948;6.132;2023-04-25T01:18:08;24.63;;;5.90;;
48578;SDS011;34357;51.948;6.132;2023-04-25T01:20:35;20.00;;;6.50;;
48578;SDS011;34357;51.948;6.132;2023-04-25T01:23:03;26.23;;;5.20;;
48578;SDS011;34357;51.948;6.132;2023-04-25T01:25:30;27.80;;;6.60;;
48578;SDS011;34357;51.948;6.132;2023-04-25T01:27:57;31.35;;;6.90;;
48578;SDS011;34357;51.948;6.132;2023-04-25T01:30:25;26.00;;;5.70;;
48578;SDS011;34357;51.948;6.132;2023-04-25T01:32:53;32.40;;;6.68;;
48578;SDS011;34357;51.948;6.132;2023-04-25T01:35:24;21.23;;;5.70;;
48578;SDS011;34357;51.948;6.132;2023-04-25T01:37:52;22.17;;;5.65;;
48578;SDS011;34357;51.948;6.132;2023-04-25T01:40:18;24.80;;;5.40;;
48578;SDS011;34357;51.948;6.132;2023-04-25T01:42:45;27.15;;;6.35;;
48578;SDS011;34357;51.948;6.132;2023-04-25T01:45:11;23.63;;;5.30;;
48578;SDS011;34357;51.948;6.132;2023-04-25T01:47:38;26.85;;;5.90;;
48578;SDS011;34357;51.948;6.132;2023-04-25T01:50:05;24.95;;;5.88;;
48578;SDS011;34357;51.948;6.132;2023-04-25T01:52:33;20.52;;;6.13;;
48578;SDS011;34357;51.948;6.132;2023-04-25T01:54:59;32.03;;;6.95;;
48578;SDS011;34357;51.948;6.132;2023-04-25T01:57:28;25.83;;;5.97;;
48578;SDS011;34357;51.948;6.132;2023-04-25T01:59:58;21.67;;;6.63;;
48578;SDS011;34357;51.948;6.132;2023-04-25T02:02:37;25.33;;;6.63;;
48578;SDS011;34357;51.948;6.132;2023-04-25T02:05:06;29.63;;;7.40;;
48578;SDS011;34357;51.948;6.132;2023-04-25T02:07:35;23.25;;;6.50;;
48578;SDS011;34357;51.948;6.132;2023-04-25T02:10:01;28.48;;;7.10;;
48578;SDS011;34357;51.948;6.132;2023-04-25T02:12:30;26.35;;;7.28;;
48578;SDS011;34357;51.948;6.132;2023-04-25T02:15:17;24.13;;;6.60;;
48578;SDS011;34357;51.948;6.132;2023-04-25T02:17:56;28.35;;;6.50;;
48578;SDS011;34357;51.948;6.132;2023-04-25T02:20:23;26.45;;;6.63;;
48578;SDS011;34357;51.948;6.132;2023-04-25T02:22:49;27.02;;;5.88;;
48578;SDS011;34357;51.948;6.132;2023-04-25T02:25:16;33.28;;;6.38;;
48578;SDS011;34357;51.948;6.132;2023-04-25T02:27:42;25.67;;;6.45;;
48578;SDS011;34357;51.948;6.132;2023-04-25T02:30:08;24.27;;;6.07;;
48578;SDS011;34357;51.948;6.132;2023-04-25T02:32:35;29.75;;;6.72;;
48578;SDS011;34357;51.948;6.132;2023-04-25T02:35:01;25.02;;;6.05;;
48578;SDS011;34357;51.948;6.132;2023-04-25T02:37:30;29.17;;;6.47;;
48578;SDS011;34357;51.948;6.132;2023-04-25T02:39:56;38.95;;;6.72;;
48578;SDS011;34357;51.948;6.132;2023-04-25T02:42:22;23.38;;;5.43;;
48578;SDS011;34357;51.948;6.132;2023-04-25T02:44:48;21.88;;;5.15;;
48578;SDS011;34357;51.948;6.132;2023-04-25T02:47:14;21.92;;;5.50;;
48578;SDS011;34357;51.948;6.132;2023-04-25T02:49:42;27.90;;;5.93;;
48578;SDS011;34357;51.948;6.132;2023-04-25T02:52:08;23.85;;;5.75;;
48578;SDS011;34357;51.948;6.132;2023-04-25T02:54:34;27.13;;;5.57;;
48578;SDS011;34357;51.948;6.132;2023-04-25T02:57:00;23.67;;;5.40;;
48578;SDS011;34357;51.948;6.132;2023-04-25T02:59:33;23.88;;;5.70;;
48578;SDS011;34357;51.948;6.132;2023-04-25T03:01:59;30.60;;;6.10;;
48578;SDS011;34357;51.948;6.132;2023-04-25T03:04:26;25.88;;;6.47;;
48578;SDS011;34357;51.948;6.132;2023-04-25T03:06:52;31.27;;;6.03;;
48578;SDS011;34357;51.948;6.132;2023-04-25T03:09:20;30.13;;;6.57;;
48578;SDS011;34357;51.948;6.132;2023-04-25T03:11:46;24.65;;;6.43;;
48578;SDS011;34357;51.948;6.132;2023-04-25T03:14:12;26.27;;;6.85;;
48578;SDS011;34357;51.948;6.132;2023-04-25T03:16:38;26.77;;;6.47;;
48578;SDS011;34357;51.948;6.132;2023-04-25T03:19:04;30.60;;;6.10;;
48578;SDS011;34357;51.948;6.132;2023-04-25T03:21:31;28.65;;;7.32;;
48578;SDS011;34357;51.948;6.132;2023-04-25T03:23:58;32.92;;;5.85;;
48578;SDS011;34357;51.948;6.132;2023-04-25T03:26:25;20.83;;;5.32;;
48578;SDS011;34357;51.948;6.132;2023-04-25T03:28:51;31.27;;;6.65;;
48578;SDS011;34357;51.948;6.132;2023-04-25T03:31:17;30.58;;;7.13;;
48578;SDS011;34357;51.948;6.132;2023-04-25T03:33:43;26.58;;;5.78;;
48578;SDS011;34357;51.948;6.132;2023-04-25T03:36:09;25.15;;;6.45;;
48578;SDS011;34357;51.948;6.132;2023-04-25T03:38:35;22.92;;;6.43;;
48578;SDS011;34357;51.948;6.132;2023-04-25T03:41:02;18.40;;;5.70;;
48578;SDS011;34357;51.948;6.132;2023-04-25T03:43:46;24.33;;;6.10;;
48578;SDS011;34357;51.948;6.132;2023-04-25T03:46:13;26.55;;;5.65;;
48578;SDS011;34357;51.948;6.132;2023-04-25T03:48:40;22.13;;;5.63;;
48578;SDS011;34357;51.948;6.132;2023-04-25T03:51:07;27.42;;;5.80;;
48578;SDS011;34357;51.948;6.132;2023-04-25T03:53:37;24.13;;;5.70;;
48578;SDS011;34357;51.948;6.132;2023-04-25T03:56:31;23.55;;;5.20;;
48578;SDS011;34357;51.948;6.132;2023-04-25T03:59:04;20.33;;;5.68;;
48578;SDS011;34357;51.948;6.132;2023-04-25T04:01:30;20.95;;;5.75;;
48578;SDS011;34357;51.948;6.132;2023-04-25T04:03:56;22.17;;;5.20;;
48578;SDS011;34357;51.948;6.132;2023-04-25T04:06:23;30.70;;;6.07;;
48578;SDS011;34357;51.948;6.132;2023-04-25T04:08:55;23.38;;;5.72;;
48578;SDS011;34357;51.948;6.132;2023-04-25T04:11:22;23.17;;;5.97;;
48578;SDS011;34357;51.948;6.132;2023-04-25T04:13:48;21.60;;;5.53;;
48578;SDS011;34357;51.948;6.132;2023-04-25T04:16:14;27.13;;;6.53;;
48578;SDS011;34357;51.948;6.132;2023-04-25T04:18:40;24.92;;;5.55;;
48578;SDS011;34357;51.948;6.132;2023-04-25T04:21:05;19.50;;;5.57;;
48578;SDS011;34357;51.948;6.132;2023-04-25T04:23:34;25.13;;;6.60;;
48578;SDS011;34357;51.948;6.132;2023-04-25T04:26:00;28.05;;;6.50;;
48578;SDS011;34357;51.948;6.132;2023-04-25T04:28:26;21.75;;;6.32;;
48578;SDS011;34357;51.948;6.132;2023-04-25T04:31:11;30.30;;;7.38;;
48578;SDS011;34357;51.948;6.132;2023-04-25T04:33:37;28.85;;;7.28;;
48578;SDS011;34357;51.948;6.132;2023-04-25T04:36:04;29.02;;;6.90;;
48578;SDS011;34357;51.948;6.132;2023-04-25T04:38:32;27.33;;;6.30;;
48578;SDS011;34357;51.948;6.132;2023-04-25T04:41:00;23.50;;;6.55;;
48578;SDS011;34357;51.948;6.132;2023-04-25T04:43:38;28.05;;;6.78;;
48578;SDS011;34357;51.948;6.132;2023-04-25T04:46:22;27.92;;;6.78;;
48578;SDS011;34357;51.948;6.132;2023-04-25T04:49:08;24.98;;;7.03;;
48578;SDS011;34357;51.948;6.132;2023-04-25T04:52:01;28.10;;;7.15;;
48578;SDS011;34357;51.948;6.132;2023-04-25T04:54:50;35.17;;;7.50;;
48578;SDS011;34357;51.948;6.132;2023-04-25T04:57:36;23.02;;;6.65;;
48578;SDS011;34357;51.948;6.132;2023-04-25T05:00:22;31.90;;;8.00;;
48578;SDS011;34357;51.948;6.132;2023-04-25T05:03:06;35.28;;;7.22;;
48578;SDS011;34357;51.948;6.132;2023-04-25T05:05:57;23.08;;;7.68;;
48578;SDS011;34357;51.948;6.132;2023-04-25T05:08:45;28.10;;;6.15;;
48578;SDS011;34357;51.948;6.132;2023-04-25T05:11:19;19.38;;;5.88;;
48578;SDS011;34357;51.948;6.132;2023-04-25T05:14:12;23.17;;;6.10;;
48578;SDS011;34357;51.948;6.132;2023-04-25T05:16:46;21.20;;;5.30;;
48578;SDS011;34357;51.948;6.132;2023-04-25T05:19:30;18.08;;;5.65;;
48578;SDS011;34357;51.948;6.132;2023-04-25T05:22:20;15.52;;;4.78;;
48578;SDS011;34357;51.948;6.132;2023-04-25T05:25:14;15.15;;;4.97;;
48578;SDS011;34357;51.948;6.132;2023-04-25T05:27:46;16.25;;;4.82;;
48578;SDS011;34357;51.948;6.132;2023-04-25T05:30:41;17.80;;;4.25;;
48578;SDS011;34357;51.948;6.132;2023-04-25T05:33:14;13.18;;;4.85;;
48578;SDS011;34357;51.948;6.132;2023-04-25T05:35:41;16.67;;;4.78;;
48578;SDS011;34357;51.948;6.132;2023-04-25T05:38:07;14.63;;;4.70;;
48578;SDS011;34357;51.948;6.132;2023-04-25T05:40:51;16.95;;;4.68;;
48578;SDS011;34357;51.948;6.132;2023-04-25T05:43:52;20.33;;;4.73;;
48578;SDS011;34357;51.948;6.132;2023-04-25T05:46:37;15.50;;;4.50;;
48578;SDS011;34357;51.948;6.132;2023-04-25T05:49:21;14.23;;;4.60;;
48578;SDS011;34357;51.948;6.132;2023-04-25T05:52:00;17.20;;;4.75;;
48578;SDS011;34357;51.948;6.132;2023-04-25T05:54:45;15.88;;;4.72;;
48578;SDS011;34357;51.948;6.132;2023-04-25T05:57:24;15.05;;;4.75;;
48578;SDS011;34357;51.948;6.132;2023-04-25T05:59:52;15.23;;;4.82;;
48578;SDS011;34357;51.948;6.132;2023-04-25T06:02:19;16.77;;;4.40;;
48578;SDS011;34357;51.948;6.132;2023-04-25T06:04:48;10.95;;;3.97;;
48578;SDS011;34357;51.948;6.132;2023-04-25T06:07:15;20.17;;;4.20;;
48578;SDS011;34357;51.948;6.132;2023-04-25T06:09:40;11.32;;;3.00;;
48578;SDS011;34357;51.948;6.132;2023-04-25T06:12:08;11.32;;;2.88;;
48578;SDS011;34357;51.948;6.132;2023-04-25T06:14:34;11.65;;;2.85;;
48578;SDS011;34357;51.948;6.132;2023-04-25T06:17:00;9.18;;;2.58;;
48578;SDS011;34357;51.948;6.132;2023-04-25T06:19:32;8.48;;;1.88;;
48578;SDS011;34357;51.948;6.132;2023-04-25T06:21:58;10.57;;;2.17;;
48578;SDS011;34357;51.948;6.132;2023-04-25T06:24:24;11.00;;;2.15;;
48578;SDS011;34357;51.948;6.132;2023-04-25T06:26:49;7.55;;;2.05;;
48578;SDS011;34357;51.948;6.132;2023-04-25T06:29:15;8.25;;;1.83;;
48578;SDS011;34357;51.948;6.132;2023-04-25T06:31:41;10.75;;;2.10;;
48578;SDS011;34357;51.948;6.132;2023-04-25T06:34:07;8.25;;;2.63;;
48578;SDS011;34357;51.948;6.132;2023-04-25T06:36:36;7.85;;;2.28;;
48578;SDS011;34357;51.948;6.132;2023-04-25T06:39:06;10.90;;;2.17;;
48578;SDS011;34357;51.948;6.132;2023-04-25T06:41:32;6.90;;;2.13;;
48578;SDS011;34357;51.948;6.132;2023-04-25T06:44:01;8.05;;;2.13;;
48578;SDS011;34357;51.948;6.132;2023-04-25T06:46:31;6.88;;;2.17;;
48578;SDS011;34357;51.948;6.132;2023-04-25T06:48:58;8.40;;;2.08;;
48578;SDS011;34357;51.948;6.132;2023-04-25T06:51:23;9.35;;;2.00;;
48578;SDS011;34357;51.948;6.132;2023-04-25T06:53:51;7.05;;;2.10;;
48578;SDS011;34357;51.948;6.132;2023-04-25T06:56:25;8.75;;;2.05;;
48578;SDS011;34357;51.948;6.132;2023-04-25T06:59:20;7.53;;;2.10;;
48578;SDS011;34357;51.948;6.132;2023-04-25T07:01:47;8.02;;;1.50;;
48578;SDS011;34357;51.948;6.132;2023-04-25T07:04:19;9.68;;;2.22;;
48578;SDS011;34357;51.948;6.132;2023-04-25T07:06:49;6.97;;;2.13;;
48578;SDS011;34357;51.948;6.132;2023-04-25T07:09:18;8.27;;;2.10;;
48578;SDS011;34357;51.948;6.132;2023-04-25T07:11:46;8.18;;;2.17;;
48578;SDS011;34357;51.948;6.132;2023-04-25T07:14:12;10.13;;;2.65;;
48578;SDS011;34357;51.948;6.132;2023-04-25T07:16:38;17.67;;;2.83;;
48578;SDS011;34357;51.948;6.132;2023-04-25T07:19:05;11.48;;;2.28;;
48578;SDS011;34357;51.948;6.132;2023-04-25T07:21:30;12.05;;;3.10;;
48578;SDS011;34357;51.948;6.132;2023-04-25T07:23:59;13.50;;;2.63;;
48578;SDS011;34357;51.948;6.132;2023-04-25T07:26:30;14.48;;;3.00;;
48578;SDS011;34357;51.948;6.132;2023-04-25T07:29:14;8.85;;;2.17;;
48578;SDS011;34357;51.948;6.132;2023-04-25T07:31:40;10.93;;;1.88;;
48578;SDS011;34357;51.948;6.132;2023-04-25T07:34:05;8.35;;;1.52;;
48578;SDS011;34357;51.948;6.132;2023-04-25T07:36:31;8.13;;;1.60;;
48578;SDS011;34357;51.948;6.132;2023-04-25T07:38:57;10.52;;;1.88;;
48578;SDS011;34357;51.948;6.132;2023-04-25T07:41:23;13.23;;;1.80;;
48578;SDS011;34357;51.948;6.132;2023-04-25T07:43:49;8.35;;;2.17;;
48578;SDS011;34357;51.948;6.132;2023-04-25T07:46:15;7.50;;;1.83;;
48578;SDS011;34357;51.948;6.132;2023-04-25T07:48:41;8.13;;;1.80;;
48578;SDS011;34357;51.948;6.132;2023-04-25T07:51:07;8.38;;;1.67;;
48578;SDS011;34357;51.948;6.132;2023-04-25T07:53:35;11.35;;;1.92;;
48578;SDS011;34357;51.948;6.132;2023-04-25T07:56:06;9.25;;;2.22;;
48578;SDS011;34357;51.948;6.132;2023-04-25T07:58:35;10.68;;;1.88;;
48578;SDS011;34357;51.948;6.132;2023-04-25T08:01:03;9.02;;;1.98;;
48578;SDS011;34357;51.948;6.132;2023-04-25T08:04:05;14.38;;;2.30;;
48578;SDS011;34357;51.948;6.132;2023-04-25T08:06:59;7.53;;;1.58;;
48578;SDS011;34357;51.948;6.132;2023-04-25T08:09:29;15.30;;;2.88;;
48578;SDS011;34357;51.948;6.132;2023-04-25T08:11:59;10.00;;;2.23;;
48578;SDS011;34357;51.948;6.132;2023-04-25T08:14:29;20.58;;;2.72;;
48578;SDS011;34357;51.948;6.132;2023-04-25T08:17:01;10.98;;;2.72;;
48578;SDS011;34357;51.948;6.132;2023-04-25T08:19:29;13.25;;;2.33;;
48578;SDS011;34357;51.948;6.132;2023-04-25T08:21:56;11.88;;;2.17;;
48578;SDS011;34357;51.948;6.132;2023-04-25T08:24:28;10.07;;;1.60;;
48578;SDS011;34357;51.948;6.132;2023-04-25T08:26:54;10.20;;;1.50;;
48578;SDS011;34357;51.948;6.132;2023-04-25T08:29:22;13.88;;;2.13;;
48578;SDS011;34357;51.948;6.132;2023-04-25T08:31:49;9.73;;;1.90;;
48578;SDS011;34357;51.948;6.132;2023-04-25T08:34:16;10.65;;;2.05;;
48578;SDS011;34357;51.948;6.132;2023-04-25T08:36:44;9.85;;;1.90;;
48578;SDS011;34357;51.948;6.132;2023-04-25T08:39:25;9.30;;;2.08;;
48578;SDS011;34357;51.948;6.132;2023-04-25T08:42:23;13.27;;;2.30;;
48578;SDS011;34357;51.948;6.132;2023-04-25T08:44:50;8.30;;;1.77;;
48578;SDS011;34357;51.948;6.132;2023-04-25T08:47:19;7.53;;;1.70;;
48578;SDS011;34357;51.948;6.132;2023-04-25T08:49:51;11.68;;;2.00;;
48578;SDS011;34357;51.948;6.132;2023-04-25T08:52:24;12.05;;;1.85;;
48578;SDS011;34357;51.948;6.132;2023-04-25T08:54:55;10.98;;;1.73;;
48578;SDS011;34357;51.948;6.132;2023-04-25T08:57:23;8.10;;;1.30;;
48578;SDS011;34357;51.948;6.132;2023-04-25T08:59:50;7.07;;;1.35;;
48578;SDS011;34357;51.948;6.132;2023-04-25T09:02:18;11.30;;;1.92;;
48578;SDS011;34357;51.948;6.132;2023-04-25T09:04:48;4.78;;;1.05;;
48578;SDS011;34357;51.948;6.132;2023-04-25T09:07:14;6.82;;;1.20;;
48578;SDS011;34357;51.948;6.132;2023-04-25T09:09:43;6.38;;;1.48;;
48578;SDS011;34357;51.948;6.132;2023-04-25T09:12:09;7.85;;;1.73;;
48578;SDS011;34357;51.948;6.132;2023-04-25T09:14:35;5.45;;;1.20;;
48578;SDS011;34357;51.948;6.132;2023-04-25T09:17:21;7.53;;;1.80;;
48578;SDS011;34357;51.948;6.132;2023-04-25T09:20:10;6.25;;;1.20;;
48578;SDS011;34357;51.948;6.132;2023-04-25T09:22:38;6.15;;;1.13;;
48578;SDS011;34357;51.948;6.132;2023-04-25T09:25:11;7.43;;;1.48;;
48578;SDS011;34357;51.948;6.132;2023-04-25T09:27:50;9.77;;;1.60;;
48578;SDS011;34357;51.948;6.132;2023-04-25T09:30:28;8.27;;;1.50;;
48578;SDS011;34357;51.948;6.132;2023-04-25T09:33:15;7.60;;;1.48;;
48578;SDS011;34357;51.948;6.132;2023-04-25T09:35:46;11.65;;;1.75;;
48578;SDS011;34357;51.948;6.132;2023-04-25T09:38:25;9.05;;;1.63;;
48578;SDS011;34357;51.948;6.132;2023-04-25T09:41:23;12.45;;;1.98;;
48578;SDS011;34357;51.948;6.132;2023-04-25T09:43:50;4.65;;;1.50;;
48578;SDS011;34357;51.948;6.132;2023-04-25T09:46:16;10.35;;;1.50;;
48578;SDS011;34357;51.948;6.132;2023-04-25T09:48:49;8.63;;;1.98;;
48578;SDS011;34357;51.948;6.132;2023-04-25T09:51:18;8.70;;;1.58;;
48578;SDS011;34357;51.948;6.132;2023-04-25T09:53:46;10.95;;;2.00;;
48578;SDS011;34357;51.948;6.132;2023-04-25T09:56:38;10.40;;;1.80;;
48578;SDS011;34357;51.948;6.132;2023-04-25T09:59:06;7.35;;;1.80;;
48578;SDS011;34357;51.948;6.132;2023-04-25T10:01:35;9.70;;;1.65;;
48578;SDS011;34357;51.948;6.132;2023-04-25T10:04:10;6.30;;;1.65;;
48578;SDS011;34357;51.948;6.132;2023-04-25T10:06:57;10.32;;;1.75;;
48578;SDS011;34357;51.948;6.132;2023-04-25T10:09:25;6.13;;;1.55;;
48578;SDS011;34357;51.948;6.132;2023-04-25T10:11:51;10.10;;;1.95;;
48578;SDS011;34357;51.948;6.132;2023-04-25T10:14:18;11.20;;;1.65;;
48578;SDS011;34357;51.948;6.132;2023-04-25T10:16:45;10.30;;;1.60;;
48578;SDS011;34357;51.948;6.132;2023-04-25T10:19:12;10.68;;;1.65;;
48578;SDS011;34357;51.948;6.132;2023-04-25T10:21:46;6.63;;;1.23;;
48578;SDS011;34357;51.948;6.132;2023-04-25T10:24:17;7.45;;;1.25;;
48578;SDS011;34357;51.948;6.132;2023-04-25T10:26:44;6.72;;;1.40;;
48578;SDS011;34357;51.948;6.132;2023-04-25T10:29:10;7.40;;;1.88;;
48578;SDS011;34357;51.948;6.132;2023-04-25T10:31:44;4.03;;;0.82;;
48578;SDS011;34357;51.948;6.132;2023-04-25T10:34:11;6.53;;;1.10;;
48578;SDS011;34357;51.948;6.132;2023-04-25T10:36:37;6.07;;;1.40;;
48578;SDS011;34357;51.948;6.132;2023-04-25T10:39:05;5.15;;;1.50;;
48578;SDS011;34357;51.948;6.132;2023-04-25T10:41:52;7.35;;;1.10;;
48578;SDS011;34357;51.948;6.132;2023-04-25T10:44:22;5.10;;;0.93;;
48578;SDS011;34357;51.948;6.132;2023-04-25T10:46:47;8.65;;;1.42;;
48578;SDS011;34357;51.948;6.132;2023-04-25T10:52:14;6.45;;;1.45;;
48578;SDS011;34357;51.948;6.132;2023-04-25T10:54:51;7.57;;;1.40;;
48578;SDS011;34357;51.948;6.132;2023-04-25T11:00:02;10.45;;;1.80;;
48578;SDS011;34357;51.948;6.132;2023-04-25T11:02:45;7.53;;;1.40;;
48578;SDS011;34357;51.948;6.132;2023-04-25T11:05:20;8.85;;;1.15;;
48578;SDS011;34357;51.948;6.132;2023-04-25T11:07:57;6.35;;;1.42;;
48578;SDS011;34357;51.948;6.132;2023-04-25T11:10:27;10.07;;;1.50;;
48578;SDS011;34357;51.948;6.132;2023-04-25T11:12:55;5.60;;;1.50;;
48578;SDS011;34357;51.948;6.132;2023-04-25T11:15:22;6.03;;;1.15;;
48578;SDS011;34357;51.948;6.132;2023-04-25T11:17:50;5.78;;;1.30;;
48578;SDS011;34357;51.948;6.132;2023-04-25T11:20:17;6.03;;;1.30;;
48578;SDS011;34357;51.948;6.132;2023-04-25T11:22:44;9.77;;;1.50;;
48578;SDS011;34357;51.948;6.132;2023-04-25T11:25:11;10.85;;;1.33;;
48578;SDS011;34357;51.948;6.132;2023-04-25T11:27:50;15.10;;;2.33;;
48578;SDS011;34357;51.948;6.132;2023-04-25T11:30:17;8.35;;;1.25;;
48578;SDS011;34357;51.948;6.132;2023-04-25T11:32:43;9.10;;;1.83;;
48578;SDS011;34357;51.948;6.132;2023-04-25T11:35:10;8.23;;;1.05;;
48578;SDS011;34357;51.948;6.132;2023-04-25T11:37:38;7.05;;;1.10;;
48578;SDS011;34357;51.948;6.132;2023-04-25T11:40:05;7.85;;;1.17;;
48578;SDS011;34357;51.948;6.132;2023-04-25T11:42:32;9.13;;;1.42;;
48578;SDS011;34357;51.948;6.132;2023-04-25T11:45:00;6.13;;;1.20;;
48578;SDS011;34357;51.948;6.132;2023-04-25T11:47:29;3.53;;;0.95;;
48578;SDS011;34357;51.948;6.132;2023-04-25T11:49:57;5.65;;;1.10;;
48578;SDS011;34357;51.948;6.132;2023-04-25T11:52:24;7.72;;;1.40;;
48578;SDS011;34357;51.948;6.132;2023-04-25T11:55:00;7.47;;;1.45;;
48578;SDS011;34357;51.948;6.132;2023-04-25T11:57:26;6.25;;;1.10;;
48578;SDS011;34357;51.948;6.132;2023-04-25T11:59:51;5.22;;;0.90;;
48578;SDS011;34357;51.948;6.132;2023-04-25T12:02:24;6.63;;;1.20;;
48578;SDS011;34357;51.948;6.132;2023-04-25T12:04:50;4.20;;;1.45;;
48578;SDS011;34357;51.948;6.132;2023-04-25T12:07:16;6.97;;;1.38;;
48578;SDS011;34357;51.948;6.132;2023-04-25T12:09:44;4.30;;;1.10;;
48578;SDS011;34357;51.948;6.132;2023-04-25T12:12:18;3.95;;;1.10;;
48578;SDS011;34357;51.948;6.132;2023-04-25T12:14:45;4.05;;;1.08;;
48578;SDS011;34357;51.948;6.132;2023-04-25T12:17:13;5.25;;;1.05;;
48578;SDS011;34357;51.948;6.132;2023-04-25T12:19:39;5.60;;;0.98;;
48578;SDS011;34357;51.948;6.132;2023-04-25T12:22:18;6.43;;;0.93;;
48578;SDS011;34357;51.948;6.132;2023-04-25T12:24:46;3.75;;;0.90;;
48578;SDS011;34357;51.948;6.132;2023-04-25T12:27:13;3.42;;;1.08;;
48578;SDS011;34357;51.948;6.132;2023-04-25T12:29:50;4.03;;;1.33;;
48578;SDS011;34357;51.948;6.132;2023-04-25T12:32:17;7.13;;;1.27;;
48578;SDS011;34357;51.948;6.132;2023-04-25T12:34:43;4.55;;;0.90;;
48578;SDS011;34357;51.948;6.132;2023-04-25T12:37:10;4.45;;;1.00;;
48578;SDS011;34357;51.948;6.132;2023-04-25T12:39:36;6.68;;;1.65;;
48578;SDS011;34357;51.948;6.132;2023-04-25T12:42:02;7.25;;;1.77;;
48578;SDS011;34357;51.948;6.132;2023-04-25T12:44:28;7.50;;;1.40;;
48578;SDS011;34357;51.948;6.132;2023-04-25T12:46:54;12.93;;;1.90;;
48578;SDS011;34357;51.948;6.132;2023-04-25T12:49:20;8.40;;;1.63;;
48578;SDS011;34357;51.948;6.132;2023-04-25T12:51:45;5.22;;;1.27;;
48578;SDS011;34357;51.948;6.132;2023-04-25T12:54:12;8.45;;;1.60;;
48578;SDS011;34357;51.948;6.132;2023-04-25T12:56:39;7.68;;;2.00;;
48578;SDS011;34357;51.948;6.132;2023-04-25T12:59:06;7.82;;;2.05;;
48578;SDS011;34357;51.948;6.132;2023-04-25T13:01:31;18.05;;;2.40;;
48578;SDS011;34357;51.948;6.132;2023-04-25T13:03:57;7.75;;;1.60;;
48578;SDS011;34357;51.948;6.132;2023-04-25T13:06:23;9.35;;;1.58;;
48578;SDS011;34357;51.948;6.132;2023-04-25T13:08:49;6.93;;;1.38;;
48578;SDS011;34357;51.948;6.132;2023-04-25T13:11:15;9.98;;;1.98;;
48578;SDS011;34357;51.948;6.132;2023-04-25T13:13:41;5.30;;;1.27;;
48578;SDS011;34357;51.948;6.132;2023-04-25T13:16:07;6.35;;;1.33;;
48578;SDS011;34357;51.948;6.132;2023-04-25T13:18:33;5.22;;;1.33;;
48578;SDS011;34357;51.948;6.132;2023-04-25T13:21:00;8.40;;;1.23;;
48578;SDS011;34357;51.948;6.132;2023-04-25T13:23:26;6.70;;;1.13;;
48578;SDS011;34357;51.948;6.132;2023-04-25T13:25:53;7.53;;;1.60;;
48578;SDS011;34357;51.948;6.132;2023-04-25T13:28:20;4.53;;;1.60;;
48578;SDS011;34357;51.948;6.132;2023-04-25T13:30:46;5.80;;;1.20;;
48578;SDS011;34357;51.948;6.132;2023-04-25T13:33:13;5.60;;;1.17;;
48578;SDS011;34357;51.948;6.132;2023-04-25T13:35:40;5.80;;;1.00;;
48578;SDS011;34357;51.948;6.132;2023-04-25T13:38:06;5.18;;;0.90;;
48578;SDS011;34357;51.948;6.132;2023-04-25T13:40:32;5.60;;;1.02;;
48578;SDS011;34357;51.948;6.132;2023-04-25T13:42:58;5.60;;;1.48;;
48578;SDS011;34357;51.948;6.132;2023-04-25T13:45:24;5.70;;;1.25;;
48578;SDS011;34357;51.948;6.132;2023-04-25T13:47:50;5.65;;;1.38;;
48578;SDS011;34357;51.948;6.132;2023-04-25T13:50:16;11.07;;;1.65;;
48578;SDS011;34357;51.948;6.132;2023-04-25T13:52:42;5.68;;;1.23;;
48578;SDS011;34357;51.948;6.132;2023-04-25T13:55:08;7.88;;;1.42;;
48578;SDS011;34357;51.948;6.132;2023-04-25T13:57:34;9.23;;;1.27;;
48578;SDS011;34357;51.948;6.132;2023-04-25T14:00:01;5.18;;;1.08;;
48578;SDS011;34357;51.948;6.132;2023-04-25T14:02:36;3.90;;;0.90;;
48578;SDS011;34357;51.948;6.132;2023-04-25T14:05:03;4.45;;;1.38;;
48578;SDS011;34357;51.948;6.132;2023-04-25T14:07:30;5.25;;;1.10;;
48578;SDS011;34357;51.948;6.132;2023-04-25T14:09:56;5.93;;;1.60;;
48578;SDS011;34357;51.948;6.132;2023-04-25T14:12:23;9.00;;;1.67;;
48578;SDS011;34357;51.948;6.132;2023-04-25T14:14:49;7.93;;;1.42;;
48578;SDS011;34357;51.948;6.132;2023-04-25T14:17:15;5.32;;;0.95;;
48578;SDS011;34357;51.948;6.132;2023-04-25T14:19:40;4.88;;;1.30;;
48578;SDS011;34357;51.948;6.132;2023-04-25T14:22:10;5.90;;;1.15;;
48578;SDS011;34357;51.948;6.132;2023-04-25T14:24:36;5.97;;;1.25;;
48578;SDS011;34357;51.948;6.132;2023-04-25T14:27:03;5.63;;;0.80;;
48578;SDS011;34357;51.948;6.132;2023-04-25T14:29:29;5.88;;;0.98;;
48578;SDS011;34357;51.948;6.132;2023-04-25T14:31:55;5.68;;;1.00;;
48578;SDS011;34357;51.948;6.132;2023-04-25T14:34:22;7.97;;;1.40;;
48578;SDS011;34357;51.948;6.132;2023-04-25T14:36:48;5.43;;;2.03;;
48578;SDS011;34357;51.948;6.132;2023-04-25T14:39:14;4.85;;;1.50;;
48578;SDS011;34357;51.948;6.132;2023-04-25T14:41:40;6.03;;;1.40;;
48578;SDS011;34357;51.948;6.132;2023-04-25T14:44:06;24.23;;;6.20;;
48578;SDS011;34357;51.948;6.132;2023-04-25T14:46:34;6.07;;;1.10;;
48578;SDS011;34357;51.948;6.132;2023-04-25T14:49:00;9.10;;;1.70;;
48578;SDS011;34357;51.948;6.132;2023-04-25T14:51:26;6.60;;;1.40;;
48578;SDS011;34357;51.948;6.132;2023-04-25T14:53:52;9.20;;;1.70;;
48578;SDS011;34357;51.948;6.132;2023-04-25T14:56:18;7.13;;;1.33;;
48578;SDS011;34357;51.948;6.132;2023-04-25T14:58:44;8.48;;;1.48;;
48578;SDS011;34357;51.948;6.132;2023-04-25T15:01:11;7.40;;;1.58;;
48578;SDS011;34357;51.948;6.132;2023-04-25T15:03:38;7.18;;;1.25;;